Time;durP1;ratioP1;P1;durP2;ratioP2;P2;SDS_P1;SDS_P2;PMS_P1;PMS_P2;Temp;Humidity;BMP_temperature;BMP_pressure;BME280_temperature;BME280_humidity;BME280_pressure;Samples;Min_cycle;Max_cycle;Signal;HPM_P1;HPM_P2
2021/04/07 00:01:20;;;;;;;3.88;1.02;;;15.30;44.90;;;;;;6214984;23;20524;-76
2021/04/07 00:03:46;;;;;;;3.33;1.13;;;15.20;44.80;;;;;;6215247;23;20104;-75
2021/04/07 00:06:12;;;;;;;3.53;0.90;;;15.30;44.90;;;;;;6215172;23;20051;-76
2021/04/07 00:08:37;;;;;;;4.15;1.13;;;15.20;44.80;;;;;;6188608;23;20468;-75
2021/04/07 00:11:03;;;;;;;2.22;0.77;;;15.20;44.90;;;;;;6214536;23;20449;-77
2021/04/07 00:13:29;;;;;;;3.38;0.80;;;15.20;45.00;;;;;;6214572;23;20067;-76
2021/04/07 00:15:54;;;;;;;3.72;0.85;;;15.20;45.00;;;;;;6214690;23;20000;-76
2021/04/07 00:18:20;;;;;;;1.88;0.60;;;15.20;45.00;;;;;;6214633;23;20004;-75
2021/04/07 00:20:46;;;;;;;1.95;0.63;;;15.20;45.00;;;;;;6215195;23;20084;-78
2021/04/07 00:23:12;;;;;;;2.85;1.02;;;15.10;45.10;;;;;;6214897;23;20452;-77
2021/04/07 00:25:37;;;;;;;3.00;0.60;;;15.10;45.10;;;;;;6214801;23;20015;-75
2021/04/07 00:28:07;;;;;;;3.38;0.85;;;15.10;45.00;;;;;;6214667;23;20012;-75
2021/04/07 00:30:35;;;;;;;2.08;0.70;;;15.10;45.10;;;;;;6187949;23;20009;-77
2021/04/07 00:33:01;;;;;;;2.40;0.50;;;15.10;45.10;;;;;;6214699;23;20001;-77
2021/04/07 00:35:27;;;;;;;1.75;0.60;;;15.10;45.10;;;;;;6214776;23;20000;-77
2021/04/07 00:37:53;;;;;;;2.28;0.40;;;15.10;45.10;;;;;;6214699;23;20429;-77
2021/04/07 00:40:20;;;;;;;2.72;0.70;;;15.10;45.20;;;;;;6214688;23;20004;-77
2021/04/07 00:42:48;;;;;;;2.35;0.70;;;15.00;45.20;;;;;;6188157;23;20004;-77
2021/04/07 00:45:14;;;;;;;2.30;0.60;;;15.00;45.20;;;;;;6214743;23;20080;-78
2021/04/07 00:47:40;;;;;;;2.92;0.60;;;15.00;45.20;;;;;;6214817;23;20004;-78
2021/04/07 00:50:07;;;;;;;0.70;0.40;;;15.00;45.30;;;;;;6214491;23;20000;-78
2021/04/07 00:52:33;;;;;;;2.05;0.50;;;14.90;45.20;;;;;;6214485;23;20039;-77
2021/04/07 00:55:00;;;;;;;1.35;0.70;;;14.90;45.20;;;;;;6214376;23;20000;-77
2021/04/07 00:57:27;;;;;;;2.67;0.52;;;14.90;45.20;;;;;;6214560;23;20504;-77
2021/04/07 00:59:53;;;;;;;1.25;0.50;;;14.90;45.30;;;;;;6214001;23;20012;-77
2021/04/07 01:02:19;;;;;;;3.00;0.70;;;14.90;45.30;;;;;;6214730;23;20004;-77
2021/04/07 01:04:46;;;;;;;2.58;0.75;;;14.90;45.30;;;;;;6214527;23;20001;-77
2021/04/07 01:07:13;;;;;;;1.90;0.40;;;14.90;45.30;;;;;;6214642;23;20007;-76
2021/04/07 01:09:39;;;;;;;1.38;0.75;;;14.90;45.30;;;;;;6214298;23;20389;-76
2021/04/07 01:12:06;;;;;;;1.40;0.40;;;14.80;45.30;;;;;;6214270;23;20001;-77
2021/04/07 01:14:33;;;;;;;2.30;0.50;;;14.80;45.30;;;;;;6214180;23;20001;-77
2021/04/07 01:17:00;;;;;;;1.52;0.50;;;14.80;45.30;;;;;;6213829;23;20101;-77
2021/04/07 01:19:26;;;;;;;2.17;0.70;;;14.80;45.40;;;;;;6187540;23;20024;-77
2021/04/07 01:21:53;;;;;;;1.30;0.40;;;14.80;45.40;;;;;;6214438;23;20004;-77
2021/04/07 01:24:23;;;;;;;1.75;0.43;;;14.70;45.30;;;;;;6215016;23;20004;-77
2021/04/07 01:26:50;;;;;;;1.88;0.52;;;14.70;45.30;;;;;;6214462;23;20426;-76
2021/04/07 01:29:15;;;;;;;2.25;0.50;;;14.70;45.30;;;;;;6213879;23;20005;-76
2021/04/07 01:31:49;;;;;;;1.63;0.40;;;14.70;45.40;;;;;;6213992;23;20071;-77
2021/04/07 01:34:22;;;;;;;2.65;0.80;;;14.70;45.40;;;;;;6214361;23;20011;-76
2021/04/07 01:36:49;;;;;;;2.92;0.50;;;14.70;45.40;;;;;;6214315;23;20008;-76
2021/04/07 01:39:15;;;;;;;2.35;0.50;;;14.70;45.40;;;;;;6214045;23;20147;-77
2021/04/07 01:41:41;;;;;;;1.77;0.40;;;14.60;45.40;;;;;;6213777;23;20446;-76
2021/04/07 01:44:08;;;;;;;1.58;0.55;;;14.60;45.40;;;;;;6187542;23;20353;-77
2021/04/07 01:46:34;;;;;;;1.05;0.55;;;14.60;45.40;;;;;;6214268;23;20008;-78
2021/04/07 01:49:00;;;;;;;1.65;0.50;;;14.50;45.40;;;;;;6213904;23;20000;-78
2021/04/07 01:51:27;;;;;;;2.50;0.77;;;14.50;45.40;;;;;;6213875;23;19996;-78
2021/04/07 01:54:03;;;;;;;0.90;0.30;;;14.50;45.40;;;;;;6214046;23;20054;-77
2021/04/07 01:56:28;;;;;;;;;;;14.50;45.40;;;;;;6214834;23;20001;-77
2021/04/07 01:59:03;;;;;;;2.03;0.50;;;14.50;45.40;;;;;;6213925;23;19914;-77
2021/04/07 02:01:29;;;;;;;1.15;0.40;;;14.50;45.40;;;;;;6213663;23;20001;-77
2021/04/07 02:03:54;;;;;;;2.25;0.50;;;14.40;45.40;;;;;;6213775;23;20020;-77
2021/04/07 02:06:20;;;;;;;0.95;0.30;;;14.40;45.40;;;;;;6214290;23;20001;-77
2021/04/07 02:08:46;;;;;;;3.20;0.60;;;14.40;45.40;;;;;;6213710;23;20072;-77
2021/04/07 02:11:12;;;;;;;0.85;0.40;;;14.40;45.40;;;;;;6214108;23;20001;-77
2021/04/07 02:13:37;;;;;;;3.28;0.45;;;14.40;45.40;;;;;;6213603;23;20023;-77
2021/04/07 02:16:13;;;;;;;2.58;0.50;;;14.40;45.40;;;;;;6213988;23;20131;-77
2021/04/07 02:18:40;;;;;;;2.10;0.60;;;14.30;45.40;;;;;;6213714;23;20013;-77
2021/04/07 02:21:07;;;;;;;3.63;0.65;;;14.40;45.40;;;;;;6186730;23;20000;-77
2021/04/07 02:23:36;;;;;;;2.90;0.65;;;14.30;45.50;;;;;;6214019;23;20005;-77
2021/04/07 02:26:08;;;;;;;1.73;0.70;;;14.30;45.40;;;;;;6213614;23;20016;-78
2021/04/07 02:28:34;;;;;;;1.70;0.50;;;14.30;45.30;;;;;;6213787;23;20005;-77
2021/04/07 02:31:00;;;;;;;1.85;0.45;;;14.30;46.00;;;;;;6213355;23;20071;-77
2021/04/07 02:33:26;;;;;;;1.67;0.77;;;14.30;45.40;;;;;;6186563;23;20433;-77
2021/04/07 02:35:52;;;;;;;2.10;0.75;;;14.20;45.40;;;;;;6213324;23;20000;-77
2021/04/07 02:38:18;;;;;;;3.70;1.15;;;14.30;45.50;;;;;;6213629;23;20009;-77
2021/04/07 02:40:44;;;;;;;4.25;0.70;;;14.30;45.40;;;;;;6213431;23;20009;-77
2021/04/07 02:43:10;;;;;;;2.17;0.60;;;14.20;45.40;;;;;;6213612;23;20067;-76
2021/04/07 02:45:36;;;;;;;2.50;0.65;;;14.20;45.40;;;;;;6213618;23;20007;-77
2021/04/07 02:48:02;;;;;;;1.77;0.60;;;14.30;45.40;;;;;;6213609;23;20003;-77
2021/04/07 02:50:27;;;;;;;2.47;0.80;;;14.20;45.50;;;;;;6213344;23;20055;-77
2021/04/07 02:52:53;;;;;;;2.58;0.65;;;14.20;45.40;;;;;;6187487;23;20084;-77
2021/04/07 02:55:19;;;;;;;3.97;0.70;;;14.20;45.40;;;;;;6213612;23;20000;-77
2021/04/07 02:57:45;;;;;;;3.30;0.98;;;14.20;45.50;;;;;;6213599;23;20020;-77
2021/04/07 03:00:11;;;;;;;3.15;0.80;;;14.20;45.50;;;;;;6213301;23;20016;-77
2021/04/07 03:02:36;;;;;;;2.92;0.93;;;14.20;45.40;;;;;;6213413;23;20043;-77
2021/04/07 03:05:03;;;;;;;4.60;0.77;;;14.10;45.40;;;;;;6213379;23;20005;-77
2021/04/07 03:07:29;;;;;;;3.03;0.95;;;14.10;45.40;;;;;;6213568;23;20068;-77
2021/04/07 03:09:55;;;;;;;2.40;0.73;;;14.10;45.40;;;;;;6214385;23;20094;-77
2021/04/07 03:12:20;;;;;;;3.28;0.73;;;14.10;46.00;;;;;;6212944;23;20082;-77
2021/04/07 03:14:46;;;;;;;3.42;1.20;;;14.10;45.40;;;;;;6213212;23;20000;-77
2021/04/07 03:17:12;;;;;;;4.68;0.90;;;14.10;45.50;;;;;;6214238;23;20009;-78
2021/04/07 03:19:38;;;;;;;1.77;0.75;;;14.10;45.40;;;;;;6215186;23;20036;-77
2021/04/07 03:22:03;;;;;;;4.63;1.13;;;14.00;45.90;;;;;;6215544;23;20460;-77
2021/04/07 03:24:29;;;;;;;6.32;1.48;;;14.10;45.40;;;;;;6215411;23;20065;-77
2021/04/07 03:26:55;;;;;;;3.10;0.70;;;14.10;45.40;;;;;;6215663;23;20001;-77
2021/04/07 03:29:21;;;;;;;5.50;1.20;;;14.00;45.30;;;;;;6215059;23;20027;-77
2021/04/07 03:31:47;;;;;;;2.75;0.98;;;14.00;45.40;;;;;;6188616;23;20004;-77
2021/04/07 03:34:13;;;;;;;4.72;1.05;;;14.00;45.40;;;;;;6215391;23;20466;-77
2021/04/07 03:36:38;;;;;;;3.08;1.00;;;14.00;45.30;;;;;;6215216;23;20004;-78
2021/04/07 03:39:04;;;;;;;2.75;0.95;;;14.00;45.30;;;;;;6215209;23;20025;-77
2021/04/07 03:41:30;;;;;;;3.67;1.10;;;14.00;45.30;;;;;;6215184;23;20493;-77
2021/04/07 03:43:56;;;;;;;3.47;1.02;;;14.00;45.30;;;;;;6215460;23;20340;-77
2021/04/07 03:46:21;;;;;;;3.17;0.90;;;14.00;45.30;;;;;;6215045;23;20075;-77
2021/04/07 03:48:47;;;;;;;5.03;1.65;;;13.90;45.30;;;;;;6215027;23;19997;-77
2021/04/07 03:51:13;;;;;;;3.50;1.02;;;14.00;45.30;;;;;;6215437;23;20063;-77
2021/04/07 03:53:38;;;;;;;4.13;0.93;;;14.00;45.30;;;;;;6215056;23;20060;-77
2021/04/07 03:56:04;;;;;;;3.65;1.20;;;14.00;45.40;;;;;;6215141;23;20004;-77
2021/04/07 03:58:30;;;;;;;2.70;0.88;;;13.90;45.40;;;;;;6215032;23;20012;-77
2021/04/07 04:00:56;;;;;;;2.30;1.15;;;13.90;45.40;;;;;;6214885;23;20007;-77
2021/04/07 04:03:23;;;;;;;3.92;1.23;;;13.90;45.40;;;;;;6214905;23;20059;-78
2021/04/07 04:05:49;;;;;;;3.10;1.10;;;13.90;45.40;;;;;;6215268;23;20000;-78
2021/04/07 04:08:15;;;;;;;3.10;1.42;;;13.90;46.00;;;;;;6215128;23;20080;-77
2021/04/07 04:10:41;;;;;;;3.85;1.05;;;13.90;45.40;;;;;;6214805;23;20079;-78
2021/04/07 04:13:07;;;;;;;3.60;1.33;;;13.90;45.40;;;;;;6188105;23;20452;-77
2021/04/07 04:15:33;;;;;;;6.63;1.40;;;13.80;45.30;;;;;;6214896;23;20345;-77
2021/04/07 04:17:59;;;;;;;4.18;1.00;;;13.80;45.30;;;;;;6215057;23;20004;-77
2021/04/07 04:20:25;;;;;;;3.20;1.23;;;13.90;45.40;;;;;;6215051;23;20349;-77
2021/04/07 04:22:51;;;;;;;3.63;1.17;;;13.90;45.40;;;;;;6214824;23;20418;-77
2021/04/07 04:25:19;;;;;;;4.45;1.13;;;13.80;45.40;;;;;;6214756;23;20024;-77
2021/04/07 04:27:46;;;;;;;4.45;0.93;;;13.80;45.30;;;;;;6214107;23;20005;-76
2021/04/07 04:30:14;;;;;;;3.78;1.08;;;13.80;45.40;;;;;;6214608;23;20020;-77
2021/04/07 04:32:40;;;;;;;4.45;1.35;;;13.80;45.40;;;;;;6214661;23;20001;-76
2021/04/07 04:35:07;;;;;;;5.10;1.35;;;13.80;45.30;;;;;;6214385;23;20319;-76
2021/04/07 04:37:33;;;;;;;4.13;1.15;;;13.80;45.30;;;;;;6214879;23;20055;-76
2021/04/07 04:39:59;;;;;;;5.35;1.23;;;13.80;45.40;;;;;;6214777;23;20346;-76
2021/04/07 04:42:25;;;;;;;3.42;1.30;;;13.80;45.30;;;;;;6214209;23;20015;-77
2021/04/07 04:44:52;;;;;;;2.47;0.90;;;13.80;45.40;;;;;;6214580;23;20080;-76
2021/04/07 04:47:18;;;;;;;4.25;0.90;;;13.80;45.40;;;;;;6215007;23;20024;-76
2021/04/07 04:49:45;;;;;;;2.17;0.95;;;13.80;45.40;;;;;;6214733;23;20434;-76
2021/04/07 04:52:11;;;;;;;2.13;0.93;;;13.70;45.40;;;;;;6214570;23;20013;-76
2021/04/07 04:54:37;;;;;;;3.03;0.85;;;13.80;45.40;;;;;;6187613;23;20315;-76
2021/04/07 04:57:02;;;;;;;3.67;1.38;;;13.70;45.40;;;;;;6214559;23;20398;-76
2021/04/07 04:59:28;;;;;;;3.95;1.20;;;13.70;45.40;;;;;;6214534;23;20013;-76
2021/04/07 05:01:54;;;;;;;3.33;1.08;;;13.70;45.40;;;;;;6214198;23;20001;-76
2021/04/07 05:04:19;;;;;;;2.38;1.00;;;13.70;45.50;;;;;;6187468;23;20009;-76
2021/04/07 05:06:45;;;;;;;2.63;1.15;;;13.70;45.40;;;;;;6214632;23;20001;-76
2021/04/07 05:09:11;;;;;;;4.10;1.05;;;13.70;45.40;;;;;;6187936;23;20008;-76
2021/04/07 05:11:36;;;;;;;3.95;1.10;;;13.70;45.40;;;;;;6214396;23;20080;-75
2021/04/07 05:14:03;;;;;;;2.97;1.05;;;13.70;45.40;;;;;;6214544;23;20430;-76
2021/04/07 05:16:31;;;;;;;3.22;1.02;;;13.70;45.40;;;;;;6214736;23;20007;-76
2021/04/07 05:18:57;;;;;;;3.30;1.00;;;13.70;45.50;;;;;;6214459;23;20012;-76
2021/04/07 05:21:23;;;;;;;3.78;0.98;;;13.70;45.50;;;;;;6214241;23;20058;-76
2021/04/07 05:23:48;;;;;;;2.88;0.95;;;13.60;45.40;;;;;;6214218;23;20362;-76
2021/04/07 05:26:14;;;;;;;3.38;0.95;;;13.70;45.40;;;;;;6214217;23;20005;-76
2021/04/07 05:28:41;;;;;;;3.80;0.80;;;13.60;45.40;;;;;;6213985;23;20376;-76
2021/04/07 05:31:10;;;;;;;3.67;0.93;;;13.60;45.40;;;;;;6214693;23;20005;-76
2021/04/07 05:33:38;;;;;;;3.90;0.88;;;13.60;45.40;;;;;;6214253;23;20005;-76
2021/04/07 05:36:06;;;;;;;1.90;0.88;;;13.60;45.40;;;;;;6188216;23;20008;-76
2021/04/07 05:38:33;;;;;;;3.83;0.90;;;13.60;45.40;;;;;;6214105;23;20020;-76
2021/04/07 05:41:00;;;;;;;3.53;0.80;;;13.60;45.40;;;;;;6187002;23;20392;-76
2021/04/07 05:43:27;;;;;;;3.30;1.15;;;13.60;46.00;;;;;;6187419;23;20341;-76
2021/04/07 05:45:53;;;;;;;4.65;1.08;;;13.60;45.50;;;;;;6213348;23;20023;-77
2021/04/07 05:48:19;;;;;;;2.60;0.90;;;13.60;45.40;;;;;;6214326;23;20001;-76
2021/04/07 05:50:52;;;;;;;3.42;0.98;;;13.60;45.50;;;;;;6213692;23;20008;-74
2021/04/07 05:53:19;;;;;;;3.97;1.20;;;13.60;45.60;;;;;;6213915;23;20007;-74
2021/04/07 05:55:50;;;;;;;3.47;1.05;;;13.60;45.50;;;;;;6213815;23;20004;-74
2021/04/07 05:58:16;;;;;;;3.47;1.15;;;13.60;45.50;;;;;;6214210;23;20004;-75
2021/04/07 06:00:43;;;;;;;5.00;1.08;;;13.60;45.40;;;;;;6214102;23;20012;-75
2021/04/07 06:03:10;;;;;;;3.72;0.98;;;13.70;45.40;;;;;;6214155;23;20063;-75
2021/04/07 06:05:37;;;;;;;3.30;0.93;;;13.70;45.40;;;;;;6187724;23;20013;-75
2021/04/07 06:08:03;;;;;;;2.38;0.80;;;13.80;45.60;;;;;;6214263;23;20350;-74
2021/04/07 06:10:30;;;;;;;3.65;0.75;;;13.90;45.80;;;;;;6214370;23;20298;-74
2021/04/07 06:13:00;;;;;;;2.60;0.82;;;14.10;45.70;;;;;;6214087;23;20032;-74
2021/04/07 06:15:26;;;;;;;4.05;0.98;;;14.20;45.90;;;;;;6214267;23;20353;-74
2021/04/07 06:17:56;;;;;;;3.65;0.90;;;14.30;45.90;;;;;;6213877;23;20496;-73
2021/04/07 06:20:24;;;;;;;4.40;1.00;;;14.40;45.90;;;;;;6213920;23;20397;-73
2021/04/07 06:22:51;;;;;;;6.32;1.20;;;14.40;45.70;;;;;;6213203;23;20004;-75
2021/04/07 06:25:17;;;;;;;4.80;1.02;;;14.60;46.00;;;;;;6213971;23;20016;-75
2021/04/07 06:27:47;;;;;;;6.40;1.35;;;14.70;45.90;;;;;;6213869;23;19997;-75
2021/04/07 06:30:13;;;;;;;5.47;1.10;;;14.80;45.80;;;;;;6214129;23;20000;-75
2021/04/07 06:32:38;;;;;;;5.22;1.00;;;15.00;45.80;;;;;;6213268;23;20461;-75
2021/04/07 06:35:05;;;;;;;3.85;1.00;;;15.00;46.10;;;;;;6215906;23;20000;-77
2021/04/07 06:37:31;;;;;;;4.03;0.98;;;15.20;46.30;;;;;;6211991;23;20012;-73
2021/04/07 06:39:56;;;;;;;3.67;0.93;;;15.40;46.40;;;;;;6213570;23;20046;-73
2021/04/07 06:42:22;;;;;;;3.38;1.00;;;15.50;46.30;;;;;;6213759;23;20468;-73
2021/04/07 06:44:47;;;;;;;4.82;0.70;;;15.60;46.40;;;;;;6213238;23;20069;-73
2021/04/07 06:47:13;;;;;;;2.63;0.80;;;15.70;46.40;;;;;;6212292;23;20000;-74
2021/04/07 06:49:40;;;;;;;6.93;0.88;;;15.90;46.80;;;;;;6213028;23;20015;-74
2021/04/07 06:52:11;;;;;;;3.83;1.00;;;15.80;46.00;;;;;;6212500;23;20047;-74
2021/04/07 06:54:37;;;;;;;3.72;0.80;;;15.80;46.00;;;;;;6214095;23;20352;-74
2021/04/07 06:57:03;;;;;;;3.97;0.90;;;15.80;46.00;;;;;;6213484;23;20015;-75
2021/04/07 06:59:30;;;;;;;2.08;0.68;;;15.80;45.90;;;;;;6213384;23;20044;-73
2021/04/07 07:01:55;;;;;;;2.53;1.10;;;15.90;45.80;;;;;;6213543;23;20080;-73
2021/04/07 07:04:21;;;;;;;5.40;0.90;;;15.90;45.60;;;;;;6213412;23;20090;-73
2021/04/07 07:06:52;;;;;;;2.80;0.80;;;15.80;45.60;;;;;;6213023;23;19997;-73
2021/04/07 07:09:18;;;;;;;4.75;1.08;;;15.80;45.50;;;;;;6213348;23;20008;-73
2021/04/07 07:11:51;;;;;;;2.55;0.90;;;15.80;45.40;;;;;;6186825;23;20004;-72
2021/04/07 07:14:19;;;;;;;3.33;0.93;;;15.80;45.40;;;;;;6213320;23;20400;-73
2021/04/07 07:16:46;;;;;;;3.72;0.90;;;15.70;45.30;;;;;;6212731;23;20430;-73
2021/04/07 07:19:28;;;;;;;3.22;1.08;;;15.70;45.10;;;;;;6212855;23;20017;-73
2021/04/07 07:22:02;;;;;;;5.20;1.00;;;15.70;45.40;;;;;;6213748;23;20001;-73
2021/04/07 07:24:35;;;;;;;3.60;0.98;;;15.70;45.50;;;;;;6213449;23;20008;-73
2021/04/07 07:27:06;;;;;;;5.18;1.20;;;15.60;45.40;;;;;;6213470;23;20009;-73
2021/04/07 07:29:34;;;;;;;4.38;1.10;;;15.60;45.50;;;;;;6213545;23;20087;-74
2021/04/07 07:32:02;;;;;;;2.00;0.65;;;15.50;45.30;;;;;;6213908;23;20011;-73
2021/04/07 07:34:29;;;;;;;3.30;0.70;;;15.50;45.30;;;;;;6213547;23;20005;-73
2021/04/07 07:36:55;;;;;;;4.07;1.83;;;15.50;45.20;;;;;;6213610;23;20008;-73
2021/04/07 07:39:35;;;;;;;3.22;0.82;;;15.40;45.00;;;;;;6186176;23;20017;-73
2021/04/07 07:42:07;;;;;;;2.85;1.08;;;15.40;45.00;;;;;;6213370;23;20342;-72
2021/04/07 07:44:35;;;;;;;5.72;1.02;;;15.40;45.00;;;;;;6213581;23;20004;-73
2021/04/07 07:47:27;;;;;;;4.28;1.20;;;15.30;44.70;;;;;;6213116;23;20039;-73
2021/04/07 07:50:04;;;;;;;3.45;0.80;;;15.30;44.80;;;;;;6212550;23;20005;-73
2021/04/07 07:52:32;;;;;;;3.80;1.20;;;15.20;44.50;;;;;;6213090;23;20442;-73
2021/04/07 07:55:00;;;;;;;3.97;0.77;;;15.20;44.60;;;;;;6213460;23;20028;-73
2021/04/07 07:57:26;;;;;;;2.47;0.82;;;15.10;44.60;;;;;;6212541;23;20012;-73
2021/04/07 07:59:57;;;;;;;3.70;1.10;;;15.10;45.20;;;;;;6212027;23;20013;-72
2021/04/07 08:02:27;;;;;;;2.60;0.88;;;15.10;44.80;;;;;;6213549;23;20097;-71
2021/04/07 08:04:53;;;;;;;3.05;1.00;;;15.10;44.80;;;;;;6215301;23;20338;-71
2021/04/07 08:07:18;;;;;;;4.03;0.80;;;15.10;44.70;;;;;;6214971;23;20004;-71
2021/04/07 08:09:44;;;;;;;2.58;0.93;;;15.20;44.60;;;;;;6215196;23;20491;-72
2021/04/07 08:12:11;;;;;;;3.22;1.17;;;15.20;44.50;;;;;;6215407;23;20012;-71
2021/04/07 08:14:38;;;;;;;1.85;0.80;;;15.20;44.50;;;;;;6214993;23;20011;-71
2021/04/07 08:17:04;;;;;;;5.07;1.15;;;15.20;44.40;;;;;;6215002;23;20015;-71
2021/04/07 08:19:34;;;;;;;3.00;0.98;;;15.20;44.30;;;;;;6214594;23;20039;-72
2021/04/07 08:22:01;;;;;;;3.88;1.10;;;15.20;44.20;;;;;;6215013;23;20001;-70
2021/04/07 08:24:29;;;;;;;2.38;0.90;;;15.20;44.20;;;;;;6214978;23;20076;-71
2021/04/07 08:26:56;;;;;;;2.85;0.93;;;15.20;44.10;;;;;;6214739;23;20438;-71
2021/04/07 08:29:22;;;;;;;4.55;0.98;;;15.20;44.20;;;;;;6214908;23;20430;-71
2021/04/07 08:31:49;;;;;;;2.17;1.00;;;15.20;44.10;;;;;;6215054;23;20011;-71
2021/04/07 08:34:16;;;;;;;4.25;1.00;;;15.20;44.00;;;;;;6214968;23;20000;-73
2021/04/07 08:36:44;;;;;;;3.00;0.98;;;15.20;44.10;;;;;;6215193;23;20319;-72
2021/04/07 08:39:13;;;;;;;3.35;0.88;;;15.20;44.10;;;;;;6215247;23;20021;-73
2021/04/07 08:41:39;;;;;;;2.03;0.85;;;15.20;44.10;;;;;;6214848;23;20004;-74
2021/04/07 08:44:06;;;;;;;4.35;1.05;;;15.20;44.10;;;;;;6214923;23;20011;-72
2021/04/07 08:46:42;;;;;;;2.03;0.90;;;15.20;44.00;;;;;;6214633;23;20071;-72
2021/04/07 08:49:09;;;;;;;2.85;0.90;;;15.30;43.80;;;;;;6214941;23;20009;-74
2021/04/07 08:51:35;;;;;;;2.63;0.70;;;15.30;43.80;;;;;;6214695;23;20004;-72
2021/04/07 08:54:01;;;;;;;2.55;0.90;;;15.30;43.70;;;;;;6214612;23;20051;-73
2021/04/07 08:56:31;;;;;;;2.10;0.80;;;15.30;43.70;;;;;;6214633;23;20009;-72
2021/04/07 08:58:59;;;;;;;4.13;1.20;;;15.30;43.60;;;;;;6214065;23;20043;-73
2021/04/07 09:01:35;;;;;;;2.63;0.80;;;15.30;43.60;;;;;;6214759;23;20057;-73
2021/04/07 09:04:19;;;;;;;2.53;0.93;;;15.40;43.60;;;;;;6214803;23;20004;-73
2021/04/07 09:06:59;;;;;;;2.67;0.98;;;15.40;43.40;;;;;;6214799;23;20005;-73
2021/04/07 09:09:24;;;;;;;4.22;1.17;;;15.40;43.40;;;;;;6213298;23;20003;-74
2021/04/07 09:11:51;;;;;;;3.22;1.10;;;15.50;43.40;;;;;;6214156;23;20005;-72
2021/04/07 09:14:19;;;;;;;2.20;0.90;;;15.50;43.30;;;;;;6213977;23;20385;-72
2021/04/07 09:16:45;;;;;;;2.20;1.05;;;15.50;43.40;;;;;;6214630;23;20007;-71
2021/04/07 09:19:23;;;;;;;2.60;1.15;;;15.50;43.30;;;;;;6213939;23;20008;-72
2021/04/07 09:21:57;;;;;;;3.50;1.13;;;15.50;43.30;;;;;;6214547;23;20032;-72
2021/04/07 09:24:27;;;;;;;2.58;0.75;;;15.50;43.30;;;;;;6214749;23;20005;-74
2021/04/07 09:26:54;;;;;;;3.08;1.23;;;15.40;43.40;;;;;;6214546;23;20020;-73
2021/04/07 09:29:20;;;;;;;2.15;0.88;;;15.40;43.40;;;;;;6214343;23;20004;-74
2021/04/07 09:31:46;;;;;;;3.83;1.10;;;15.30;43.50;;;;;;6214582;23;20027;-74
2021/04/07 09:34:14;;;;;;;2.38;1.00;;;15.30;43.50;;;;;;6214315;23;20005;-73
2021/04/07 09:36:42;;;;;;;4.10;1.00;;;15.30;44.20;;;;;;6214212;23;20001;-72
2021/04/07 09:39:16;;;;;;;3.13;1.10;;;15.30;43.60;;;;;;6213865;23;20009;-73
2021/04/07 09:41:44;;;;;;;1.73;0.90;;;15.20;43.60;;;;;;6213940;23;20011;-73
2021/04/07 09:44:15;;;;;;;1.80;0.85;;;15.20;43.60;;;;;;6214053;23;20000;-73
2021/04/07 09:46:41;;;;;;;2.72;0.90;;;15.20;43.70;;;;;;6214161;23;20001;-73
2021/04/07 09:49:11;;;;;;;1.63;0.90;;;15.20;43.80;;;;;;6213432;23;20465;-73
2021/04/07 09:51:38;;;;;;;2.70;1.10;;;15.20;43.80;;;;;;6214358;23;20004;-73
2021/04/07 09:54:08;;;;;;;2.25;0.95;;;15.20;43.80;;;;;;6214359;23;20005;-73
2021/04/07 09:56:59;;;;;;;3.50;0.90;;;15.10;43.90;;;;;;6214289;23;20005;-73
2021/04/07 09:59:39;;;;;;;3.15;0.90;;;15.10;43.80;;;;;;6214097;23;20083;-73
2021/04/07 10:02:07;;;;;;;2.28;0.90;;;15.10;43.80;;;;;;6214158;23;20012;-73
2021/04/07 10:04:35;;;;;;;2.22;1.13;;;15.20;43.80;;;;;;6214160;23;20000;-73
2021/04/07 10:07:16;;;;;;;2.63;1.38;;;15.20;43.80;;;;;;6212685;23;20027;-73
2021/04/07 10:09:44;;;;;;;1.65;0.90;;;15.10;43.70;;;;;;6212648;23;20004;-73
2021/04/07 10:12:10;;;;;;;2.50;0.98;;;15.20;43.80;;;;;;6212594;23;19997;-73
2021/04/07 10:14:36;;;;;;;3.50;0.77;;;15.20;43.70;;;;;;6213029;23;20013;-72
2021/04/07 10:17:16;;;;;;;2.55;0.70;;;15.20;43.60;;;;;;6212882;23;20434;-73
2021/04/07 10:19:43;;;;;;;3.17;0.98;;;15.30;43.70;;;;;;6212510;23;20441;-71
2021/04/07 10:22:15;;;;;;;2.40;0.73;;;15.30;43.80;;;;;;6212778;23;20011;-73
2021/04/07 10:24:42;;;;;;;3.70;1.10;;;15.30;44.00;;;;;;6212976;23;20088;-74
2021/04/07 10:27:08;;;;;;;2.65;1.00;;;15.30;44.00;;;;;;6185465;23;20302;-74
2021/04/07 10:29:34;;;;;;;3.17;1.10;;;15.30;44.00;;;;;;6212627;23;20083;-73
2021/04/07 10:32:00;;;;;;;6.07;1.00;;;15.50;44.00;;;;;;6186158;23;20480;-74
2021/04/07 10:34:34;;;;;;;5.88;1.08;;;15.50;43.90;;;;;;6212178;23;20008;-73
2021/04/07 10:37:01;;;;;;;2.47;0.60;;;15.70;43.90;;;;;;6211931;23;20338;-72
2021/04/07 10:39:38;;;;;;;4.15;0.95;;;15.80;43.70;;;;;;6212337;23;20016;-73
2021/04/07 10:42:05;;;;;;;2.00;0.82;;;16.00;43.50;;;;;;6213032;23;20075;-74
2021/04/07 10:44:32;;;;;;;7.93;1.20;;;16.10;43.20;;;;;;6212339;23;20004;-74
2021/04/07 10:46:58;;;;;;;2.05;0.80;;;16.20;43.20;;;;;;6211946;23;20001;-72
2021/04/07 10:49:25;;;;;;;2.15;1.02;;;16.50;43.30;;;;;;6212204;23;20001;-72
2021/04/07 10:52:05;;;;;;;2.70;0.88;;;16.80;42.70;;;;;;6212807;23;20062;-72
2021/04/07 10:54:31;;;;;;;2.58;0.73;;;17.10;42.30;;;;;;6212400;23;20438;-73
2021/04/07 10:57:01;;;;;;;8.23;1.27;;;17.30;42.20;;;;;;6212511;23;20000;-74
2021/04/07 10:59:29;;;;;;;7.35;1.20;;;17.50;42.10;;;;;;6212298;23;20444;-73
2021/04/07 11:01:54;;;;;;;9.02;1.00;;;17.60;42.80;;;;;;6212229;23;20004;-72
2021/04/07 11:04:20;;;;;;;5.78;1.35;;;17.80;43.20;;;;;;6212889;23;20005;-73
2021/04/07 11:06:55;;;;;;;5.05;1.05;;;17.80;43.30;;;;;;6212971;23;20009;-73
2021/04/07 11:09:26;;;;;;;10.02;1.70;;;17.90;43.10;;;;;;6212253;23;20429;-73
2021/04/07 11:11:54;;;;;;;3.78;0.93;;;17.90;42.70;;;;;;6185852;23;20031;-74
2021/04/07 11:14:20;;;;;;;6.30;1.65;;;18.00;42.90;;;;;;6212256;23;20001;-74
2021/04/07 11:17:01;;;;;;;12.50;2.60;;;18.10;43.10;;;;;;6213405;23;20005;-74
2021/04/07 11:19:37;;;;;;;8.30;2.25;;;18.10;44.70;;;;;;6212978;23;20013;-75
2021/04/07 11:22:08;;;;;;;11.68;2.28;;;18.30;44.60;;;;;;6212323;23;20438;-76
2021/04/07 11:24:36;;;;;;;14.27;2.80;;;18.40;45.10;;;;;;6211640;23;20429;-75
2021/04/07 11:27:02;;;;;;;13.05;3.58;;;18.50;45.20;;;;;;6211676;23;20000;-76
2021/04/07 11:29:27;;;;;;;15.23;3.67;;;18.60;45.90;;;;;;6212257;23;20083;-72
2021/04/07 11:31:56;;;;;;;11.38;3.33;;;18.70;44.30;;;;;;6212194;23;20020;-73
2021/04/07 11:34:48;;;;;;;13.82;2.40;;;18.90;44.40;;;;;;6211940;23;20004;-79
2021/04/07 11:39:56;;;;;;;12.27;3.58;;;18.90;43.80;;;;;;6204780;23;20055;-73
2021/04/07 11:44:47;;;;;;;8.40;2.28;;;19.00;43.40;;;;;;6213830;23;20027;-74
2021/04/07 11:47:13;;;;;;;7.32;1.80;;;19.10;43.30;;;;;;6214298;23;20080;-74
2021/04/07 11:49:39;;;;;;;14.25;2.38;;;19.20;43.20;;;;;;6213012;23;20124;-74
2021/04/07 11:52:05;;;;;;;9.40;2.63;;;19.20;43.10;;;;;;6214069;23;20449;-74
2021/04/07 11:54:31;;;;;;;8.77;2.25;;;19.20;43.10;;;;;;6214540;23;20076;-73
2021/04/07 11:56:56;;;;;;;5.80;2.53;;;19.30;43.20;;;;;;6213477;23;20422;-74
2021/04/07 11:59:24;;;;;;;7.55;1.70;;;19.30;43.00;;;;;;6213233;23;20036;-77
2021/04/07 12:01:53;;;;;;;7.35;2.00;;;19.30;43.20;;;;;;6213708;23;20011;-75
2021/04/07 12:04:20;;;;;;;8.80;2.58;;;19.40;43.20;;;;;;6214206;23;20051;-73
2021/04/07 12:06:46;;;;;;;6.60;2.03;;;19.60;43.30;;;;;;6212447;23;20400;-73
2021/04/07 12:09:11;;;;;;;9.68;2.35;;;19.80;42.80;;;;;;6214057;23;20000;-74
2021/04/07 12:11:38;;;;;;;8.70;2.80;;;20.40;42.30;;;;;;6213924;23;20004;-74
2021/04/07 12:14:05;;;;;;;6.00;1.77;;;21.50;40.70;;;;;;6214196;23;20334;-73
2021/04/07 12:16:31;;;;;;;5.70;2.10;;;22.60;38.90;;;;;;6187660;23;20005;-74
2021/04/07 12:18:57;;;;;;;5.78;1.80;;;22.90;37.50;;;;;;6214784;23;20054;-73
2021/04/07 12:21:23;;;;;;;4.97;1.48;;;23.70;37.50;;;;;;6215044;23;20026;-73
2021/04/07 12:23:49;;;;;;;7.82;2.33;;;25.30;35.00;;;;;;6214812;23;20460;-73
2021/04/07 12:26:15;;;;;;;5.85;1.88;;;25.80;33.30;;;;;;6188113;23;20001;-73
2021/04/07 12:28:43;;;;;;;3.97;1.73;;;23.70;34.90;;;;;;6213591;23;20001;-74
2021/04/07 12:31:11;;;;;;;6.45;2.00;;;23.90;36.30;;;;;;6214234;23;20008;-76
2021/04/07 12:33:37;;;;;;;6.47;1.58;;;24.80;33.80;;;;;;6214263;23;19996;-76
2021/04/07 12:36:07;;;;;;;5.05;1.50;;;24.20;35.40;;;;;;6187270;23;20027;-74
2021/04/07 12:38:33;;;;;;;4.70;1.30;;;25.60;34.10;;;;;;6214612;23;20075;-74
2021/04/07 12:41:03;;;;;;;4.40;1.60;;;24.90;33.90;;;;;;6214306;23;20039;-74
2021/04/07 12:43:28;;;;;;;6.00;1.70;;;23.70;34.70;;;;;;6215138;23;20383;-74
2021/04/07 12:45:54;;;;;;;4.60;1.48;;;22.70;35.70;;;;;;6214563;23;20039;-74
2021/04/07 12:48:20;;;;;;;5.40;1.40;;;22.00;36.70;;;;;;6213637;23;20001;-74
2021/04/07 12:50:47;;;;;;;3.75;1.25;;;21.50;37.20;;;;;;6187449;23;20356;-75
2021/04/07 12:53:14;;;;;;;6.30;1.83;;;21.30;37.70;;;;;;6187784;23;20008;-74
2021/04/07 12:55:40;;;;;;;3.13;1.48;;;21.20;37.80;;;;;;6214317;23;20012;-74